Time;durP1;ratioP1;P1;durP2;ratioP2;P2;SDS_P1;SDS_P2;PMS_P1;PMS_P2;Temp;Humidity;BMP_temperature;BMP_pressure;BME280_temperature;BME280_humidity;BME280_pressure;Samples;Min_cycle;Max_cycle;Signal;HPM_P1;HPM_P2
2020/12/05 00:02:13;;;;;;;18.03;10.60;;;14.90;48.70;;;;;;4977607;28;20993;-60
2020/12/05 00:04:39;;;;;;;14.23;10.03;;;14.80;48.50;;;;;;4978956;28;20203;-60
2020/12/05 00:07:05;;;;;;;13.80;9.60;;;14.80;48.40;;;;;;4978851;28;20221;-61
2020/12/05 00:09:30;;;;;;;14.97;10.70;;;14.90;48.40;;;;;;4977979;28;21140;-61
2020/12/05 00:11:56;;;;;;;12.30;9.30;;;14.80;48.00;;;;;;4977069;28;20192;-60
2020/12/05 00:14:22;;;;;;;14.83;9.97;;;14.90;48.20;;;;;;4978328;28;20372;-60
2020/12/05 00:16:52;;;;;;;13.97;9.33;;;14.80;48.30;;;;;;4978241;28;20186;-60
2020/12/05 00:19:19;;;;;;;14.23;10.03;;;14.80;48.30;;;;;;4978585;28;20318;-60
2020/12/05 00:21:45;;;;;;;16.10;11.07;;;14.80;48.20;;;;;;4978223;28;20190;-61
2020/12/05 00:24:11;;;;;;;14.93;9.57;;;14.80;48.00;;;;;;4978801;28;20228;-61
2020/12/05 00:26:37;;;;;;;15.37;9.43;;;14.80;48.20;;;;;;4978466;28;20290;-60
2020/12/05 00:29:02;;;;;;;14.40;10.33;;;14.80;48.30;;;;;;4978521;28;20217;-61
2020/12/05 00:31:28;;;;;;;15.90;10.30;;;14.80;48.20;;;;;;4977711;28;20198;-61
2020/12/05 00:33:54;;;;;;;15.00;10.73;;;14.80;48.30;;;;;;4978484;28;20321;-61
2020/12/05 00:36:19;;;;;;;14.07;10.03;;;14.70;48.30;;;;;;4978579;28;20638;-60
2020/12/05 00:38:46;;;;;;;14.60;9.83;;;14.70;48.40;;;;;;4977949;28;21091;-60
2020/12/05 00:41:17;;;;;;;12.60;9.00;;;14.70;48.50;;;;;;4968343;28;20193;-60
2020/12/05 00:43:43;;;;;;;14.40;9.23;;;14.70;48.50;;;;;;4977221;28;20274;-60
2020/12/05 00:46:08;;;;;;;14.77;9.83;;;14.60;48.40;;;;;;4977438;28;20186;-60
2020/12/05 00:48:34;;;;;;;14.27;9.37;;;14.60;48.50;;;;;;4976816;28;20279;-60
2020/12/05 00:51:00;;;;;;;15.70;10.37;;;14.60;48.50;;;;;;4976193;28;20736;-60
2020/12/05 00:53:26;;;;;;;13.17;8.50;;;14.60;48.50;;;;;;4977453;28;20211;-60
2020/12/05 00:55:52;;;;;;;14.73;10.43;;;14.60;48.50;;;;;;4977954;28;20688;-60
2020/12/05 00:58:17;;;;;;;14.67;9.83;;;14.60;48.60;;;;;;4977841;28;20203;-60
2020/12/05 01:00:43;;;;;;;16.60;10.13;;;14.60;48.40;;;;;;4976960;28;20667;-60
2020/12/05 01:03:09;;;;;;;16.37;9.60;;;14.50;48.40;;;;;;4977002;28;21155;-60
2020/12/05 01:05:35;;;;;;;15.30;9.37;;;14.50;48.40;;;;;;4977767;28;20190;-61
2020/12/05 01:08:05;;;;;;;16.70;10.57;;;14.50;48.50;;;;;;4976597;28;20208;-60
2020/12/05 01:10:35;;;;;;;14.90;10.10;;;14.50;48.60;;;;;;4977077;28;20278;-60
2020/12/05 01:13:01;;;;;;;16.63;10.07;;;14.50;48.60;;;;;;4978025;28;20223;-60
2020/12/05 01:15:30;;;;;;;14.93;10.90;;;14.50;48.60;;;;;;4977616;28;20198;-60
2020/12/05 01:17:56;;;;;;;13.93;10.63;;;14.50;48.70;;;;;;4978012;28;20213;-61
2020/12/05 01:20:23;;;;;;;16.47;11.10;;;14.50;48.70;;;;;;4976166;28;20564;-61
2020/12/05 01:22:49;;;;;;;16.43;10.43;;;14.50;48.70;;;;;;4977880;28;20195;-60
2020/12/05 01:25:15;;;;;;;14.20;10.47;;;14.50;48.80;;;;;;4978672;28;20191;-60
2020/12/05 01:27:43;;;;;;;15.03;11.00;;;14.50;48.80;;;;;;4978265;28;20216;-60
2020/12/05 01:30:10;;;;;;;15.20;10.67;;;14.50;48.80;;;;;;4977569;28;20632;-60
2020/12/05 01:32:35;;;;;;;14.80;10.87;;;14.40;48.80;;;;;;4977880;28;20210;-61
2020/12/05 01:35:01;;;;;;;17.43;11.43;;;14.50;48.90;;;;;;4978303;28;20224;-60
2020/12/05 01:37:27;;;;;;;15.10;10.77;;;14.40;49.10;;;;;;4978300;28;20287;-61
2020/12/05 01:39:52;;;;;;;15.47;10.87;;;14.40;49.00;;;;;;4977446;28;20190;-60
2020/12/05 01:42:18;;;;;;;18.37;10.50;;;14.50;49.10;;;;;;4978306;28;20706;-61
2020/12/05 01:44:44;;;;;;;15.20;11.07;;;14.50;48.90;;;;;;4977450;28;20599;-60
2020/12/05 01:47:10;;;;;;;16.73;11.17;;;14.50;48.80;;;;;;4978095;28;20225;-61
2020/12/05 01:49:36;;;;;;;14.23;9.73;;;14.50;49.00;;;;;;4977583;28;20226;-60
2020/12/05 01:52:02;;;;;;;16.60;10.40;;;14.40;48.90;;;;;;4975593;28;20240;-60
2020/12/05 01:54:28;;;;;;;15.77;9.47;;;14.50;48.60;;;;;;4978041;28;20243;-60
2020/12/05 01:57:02;;;;;;;16.07;10.73;;;14.50;48.90;;;;;;4978795;28;20189;-60
2020/12/05 01:59:28;;;;;;;16.67;9.73;;;14.40;49.10;;;;;;4980768;28;20184;-61
2020/12/05 02:02:00;;;;;;;16.83;10.17;;;14.50;49.00;;;;;;4981450;28;20873;-60
2020/12/05 02:04:35;;;;;;;15.80;10.97;;;14.50;49.10;;;;;;4981006;28;20196;-60
2020/12/05 02:07:12;;;;;;;14.70;10.30;;;14.50;49.10;;;;;;4980928;28;21007;-60
2020/12/05 02:09:42;;;;;;;16.07;10.93;;;14.50;49.10;;;;;;4980655;28;20228;-60
2020/12/05 02:12:21;;;;;;;15.20;10.87;;;14.50;49.20;;;;;;4979518;28;20205;-60
2020/12/05 02:14:51;;;;;;;18.87;11.57;;;14.50;49.20;;;;;;4980116;28;20210;-60
2020/12/05 02:17:20;;;;;;;15.37;11.23;;;14.50;49.20;;;;;;4981155;28;20217;-61
2020/12/05 02:19:52;;;;;;;17.00;10.80;;;14.50;49.10;;;;;;4980824;28;20261;-60
2020/12/05 02:22:46;;;;;;;16.10;11.37;;;14.50;49.20;;;;;;4980885;28;20696;-61
2020/12/05 02:25:13;;;;;;;16.33;10.10;;;14.50;49.20;;;;;;4971523;28;20215;-61
2020/12/05 02:27:42;;;;;;;17.30;11.47;;;14.50;49.40;;;;;;4980555;28;20562;-61
2020/12/05 02:30:10;;;;;;;18.10;10.90;;;14.50;49.40;;;;;;4979901;28;20204;-60
2020/12/05 02:32:36;;;;;;;15.63;10.17;;;14.50;49.40;;;;;;4980491;28;20657;-61
2020/12/05 02:35:03;;;;;;;17.07;10.30;;;14.60;49.30;;;;;;4980581;28;20786;-61
2020/12/05 02:37:32;;;;;;;15.63;10.87;;;14.60;49.10;;;;;;4980549;28;20257;-61
2020/12/05 02:40:00;;;;;;;17.63;10.73;;;14.60;49.20;;;;;;4979981;28;20200;-61
2020/12/05 02:42:26;;;;;;;15.70;10.63;;;14.60;49.20;;;;;;4981134;28;20970;-60
2020/12/05 02:44:53;;;;;;;16.70;10.87;;;14.60;49.20;;;;;;4979922;28;20271;-61
2020/12/05 02:47:20;;;;;;;16.50;10.83;;;14.60;49.30;;;;;;4980636;28;20217;-61
2020/12/05 02:49:46;;;;;;;17.60;11.30;;;14.60;49.20;;;;;;4980327;28;20212;-60
2020/12/05 02:52:13;;;;;;;19.57;12.53;;;14.60;49.10;;;;;;4971932;28;20274;-60
2020/12/05 02:54:39;;;;;;;16.93;10.40;;;14.60;49.20;;;;;;4980284;28;20214;-60
2020/12/05 02:57:05;;;;;;;15.57;11.20;;;14.60;49.30;;;;;;4977992;28;20246;-60
2020/12/05 02:59:31;;;;;;;15.57;11.23;;;14.60;49.10;;;;;;4979418;28;20360;-60
2020/12/05 03:01:58;;;;;;;17.37;12.07;;;14.60;49.00;;;;;;4979334;28;20188;-61
2020/12/05 03:04:24;;;;;;;17.30;11.23;;;14.60;48.90;;;;;;4979049;28;20229;-60
2020/12/05 03:06:50;;;;;;;17.27;11.73;;;14.60;49.00;;;;;;4979269;28;20225;-60
2020/12/05 03:09:16;;;;;;;15.80;11.27;;;14.60;49.20;;;;;;4978939;28;20188;-61
2020/12/05 03:11:42;;;;;;;15.10;10.97;;;14.60;49.20;;;;;;4978262;28;20195;-60
2020/12/05 03:14:08;;;;;;;15.47;10.53;;;14.60;49.00;;;;;;4978897;28;20213;-60
2020/12/05 03:16:35;;;;;;;16.50;10.83;;;14.60;49.00;;;;;;4980007;28;20204;-60
2020/12/05 03:19:00;;;;;;;17.37;11.30;;;14.60;48.80;;;;;;4979745;28;20209;-60
2020/12/05 03:21:26;;;;;;;15.83;10.63;;;14.60;49.00;;;;;;4979346;28;20193;-60
2020/12/05 03:23:52;;;;;;;16.40;11.03;;;14.60;48.80;;;;;;4980078;28;20239;-61
2020/12/05 03:26:18;;;;;;;17.20;11.33;;;14.60;49.10;;;;;;4978105;28;20207;-61
2020/12/05 03:28:44;;;;;;;16.97;11.47;;;14.60;48.60;;;;;;4978152;28;20215;-60
2020/12/05 03:31:20;;;;;;;17.37;11.80;;;14.60;48.60;;;;;;4979552;28;20199;-60
2020/12/05 03:33:46;;;;;;;15.80;11.33;;;14.60;49.20;;;;;;4979402;28;20260;-60
2020/12/05 03:36:12;;;;;;;17.07;12.13;;;14.60;48.80;;;;;;4979421;28;20185;-61
2020/12/05 03:38:37;;;;;;;18.50;12.17;;;14.50;49.00;;;;;;4979448;28;20217;-60
2020/12/05 03:41:03;;;;;;;28.03;17.33;;;14.60;48.80;;;;;;4977786;28;20206;-60
2020/12/05 03:43:29;;;;;;;59.63;34.40;;;14.60;50.50;;;;;;4979427;28;20223;-72
2020/12/05 03:45:54;;;;;;;68.93;39.07;;;14.80;54.40;;;;;;4979318;28;20228;-66
2020/12/05 03:48:20;;;;;;;81.53;50.33;;;14.80;53.40;;;;;;4979233;28;20884;-60
2020/12/05 03:50:46;;;;;;;136.23;86.23;;;14.80;53.00;;;;;;4975691;28;20664;-60
2020/12/05 03:53:11;;;;;;;136.53;87.03;;;14.80;53.60;;;;;;4978589;28;20244;-60
2020/12/05 03:55:37;;;;;;;112.63;72.20;;;14.90;53.20;;;;;;4979495;28;20196;-60
2020/12/05 03:58:03;;;;;;;90.60;57.93;;;14.90;52.90;;;;;;4978254;28;21112;-61
2020/12/05 04:00:29;;;;;;;87.97;54.33;;;14.80;51.10;;;;;;4979115;28;20708;-61
2020/12/05 04:02:54;;;;;;;97.63;60.20;;;14.80;52.70;;;;;;4978597;28;20186;-60
2020/12/05 04:05:20;;;;;;;98.57;58.60;;;14.80;52.30;;;;;;4978773;28;20658;-60
2020/12/05 04:07:46;;;;;;;87.93;56.23;;;14.90;51.70;;;;;;4978816;28;20229;-60
2020/12/05 04:10:12;;;;;;;81.90;53.87;;;14.90;51.50;;;;;;4978389;28;20230;-60
2020/12/05 04:12:38;;;;;;;80.07;51.57;;;14.90;51.10;;;;;;4979133;28;20283;-60
2020/12/05 04:15:04;;;;;;;75.73;48.00;;;14.90;51.00;;;;;;4977413;28;20236;-61
2020/12/05 04:17:29;;;;;;;76.60;46.87;;;14.80;49.90;;;;;;4978648;28;20312;-60
2020/12/05 04:19:55;;;;;;;74.77;46.17;;;14.90;51.30;;;;;;4977469;28;20941;-60
2020/12/05 04:22:21;;;;;;;72.87;45.27;;;14.90;51.20;;;;;;4979106;28;20215;-60
2020/12/05 04:24:47;;;;;;;68.03;43.63;;;15.00;51.30;;;;;;4978108;28;20249;-60
2020/12/05 04:27:12;;;;;;;62.90;40.33;;;15.00;51.50;;;;;;4976446;28;20226;-60
2020/12/05 04:29:38;;;;;;;66.20;40.87;;;15.00;50.60;;;;;;4978771;28;20194;-60
2020/12/05 04:32:04;;;;;;;64.23;39.67;;;14.90;51.00;;;;;;4977633;28;20279;-61
2020/12/05 04:34:29;;;;;;;60.20;36.10;;;15.00;51.40;;;;;;4978743;28;20224;-60
2020/12/05 04:36:55;;;;;;;54.30;33.57;;;15.10;51.50;;;;;;4978263;28;20183;-60
2020/12/05 04:39:21;;;;;;;55.37;36.27;;;15.10;51.30;;;;;;4977848;28;20557;-60
2020/12/05 04:41:47;;;;;;;56.37;36.23;;;15.20;51.50;;;;;;4976806;28;20278;-60
2020/12/05 04:44:14;;;;;;;57.60;37.60;;;15.20;51.80;;;;;;4977774;28;20273;-64
2020/12/05 04:46:41;;;;;;;49.67;33.53;;;15.20;51.30;;;;;;4976657;28;20970;-60
2020/12/05 04:49:07;;;;;;;47.37;33.40;;;15.20;51.00;;;;;;4977911;28;20303;-60
2020/12/05 04:51:37;;;;;;;51.10;32.57;;;15.20;50.30;;;;;;4977284;28;20189;-61
2020/12/05 04:54:07;;;;;;;45.97;31.13;;;15.20;50.30;;;;;;4978178;28;20218;-60
2020/12/05 04:56:36;;;;;;;46.67;29.83;;;15.20;49.80;;;;;;4977943;28;20250;-60
2020/12/05 04:59:07;;;;;;;44.33;28.00;;;15.10;49.70;;;;;;4976933;28;20708;-60
2020/12/05 05:01:37;;;;;;;44.50;29.33;;;15.10;50.20;;;;;;4978093;28;20187;-60
2020/12/05 05:04:04;;;;;;;43.93;28.33;;;15.20;51.00;;;;;;4977519;28;20203;-60
2020/12/05 05:06:31;;;;;;;39.57;25.50;;;15.30;50.60;;;;;;4977309;28;20204;-61
2020/12/05 05:08:57;;;;;;;40.50;26.60;;;15.30;49.80;;;;;;4977187;28;20832;-60
2020/12/05 05:11:26;;;;;;;36.10;26.10;;;15.30;49.20;;;;;;4977956;28;20208;-61
2020/12/05 05:14:21;;;;;;;34.63;23.87;;;15.40;48.80;;;;;;4977270;28;20210;-60
2020/12/05 05:16:46;;;;;;;35.40;26.10;;;15.40;48.30;;;;;;4977652;28;20828;-60
2020/12/05 05:19:24;;;;;;;39.50;26.77;;;15.30;47.90;;;;;;4977472;28;20200;-60
2020/12/05 05:21:50;;;;;;;36.93;25.97;;;15.30;48.40;;;;;;4977070;28;20190;-60
2020/12/05 05:24:18;;;;;;;34.00;24.57;;;15.30;48.80;;;;;;4978018;28;20204;-60
2020/12/05 05:26:57;;;;;;;32.33;24.17;;;15.20;49.10;;;;;;4976728;28;20807;-60
2020/12/05 05:29:29;;;;;;;31.43;23.23;;;15.20;49.30;;;;;;4976978;28;20224;-60
2020/12/05 05:34:31;;;;;;;30.27;21.20;;;15.10;49.50;;;;;;4980847;28;20216;-60
2020/12/05 05:36:57;;;;;;;29.13;19.27;;;15.10;49.80;;;;;;4981497;28;20679;-61
2020/12/05 05:39:23;;;;;;;28.60;19.47;;;15.20;49.80;;;;;;4980284;28;20192;-60
2020/12/05 05:41:55;;;;;;;26.50;18.33;;;15.10;49.40;;;;;;4981484;28;20183;-60
2020/12/05 05:44:25;;;;;;;29.37;19.73;;;15.10;49.80;;;;;;4981814;28;20761;-60
2020/12/05 05:46:51;;;;;;;28.17;19.20;;;15.10;49.70;;;;;;4981902;28;20231;-60
2020/12/05 05:49:33;;;;;;;26.47;18.47;;;15.20;50.00;;;;;;4981025;28;20279;-61
2020/12/05 05:52:03;;;;;;;29.83;19.13;;;15.20;49.10;;;;;;4981267;28;20776;-67
2020/12/05 05:54:31;;;;;;;28.67;18.33;;;15.20;48.90;;;;;;4980102;28;20216;-60
2020/12/05 05:57:01;;;;;;;31.83;18.13;;;15.10;49.30;;;;;;4981208;28;20289;-60
2020/12/05 05:59:32;;;;;;;28.30;17.43;;;15.10;49.50;;;;;;4981196;28;20235;-60
2020/12/05 06:01:58;;;;;;;25.27;17.20;;;15.20;49.90;;;;;;4980452;28;20183;-59
2020/12/05 06:04:39;;;;;;;24.43;16.57;;;15.10;49.30;;;;;;4979393;28;20347;-60
2020/12/05 06:07:07;;;;;;;23.20;16.03;;;15.10;49.10;;;;;;4981683;28;20346;-60
2020/12/05 06:09:49;;;;;;;23.57;16.37;;;15.10;49.00;;;;;;4980930;28;20339;-65
2020/12/05 06:12:26;;;;;;;26.10;16.60;;;15.10;48.80;;;;;;4973814;28;20203;-69
2020/12/05 06:14:53;;;;;;;26.00;17.27;;;15.10;49.40;;;;;;4981304;28;20768;-61
2020/12/05 06:17:23;;;;;;;21.97;15.53;;;15.10;49.40;;;;;;4981707;28;20206;-67
2020/12/05 06:19:52;;;;;;;22.27;15.13;;;15.10;49.10;;;;;;4980366;28;20664;-63
2020/12/05 06:22:48;;;;;;;21.13;15.03;;;15.10;49.50;;;;;;4977086;28;20643;-67
2020/12/05 06:25:19;;;;;;;21.83;15.70;;;15.10;49.40;;;;;;4973793;28;20206;-60
2020/12/05 06:27:57;;;;;;;24.40;15.13;;;15.00;49.30;;;;;;4980458;28;20215;-66
2020/12/05 06:30:23;;;;;;;23.73;14.00;;;15.00;49.30;;;;;;4969294;28;20198;-60
2020/12/05 06:32:50;;;;;;;31.37;14.37;;;15.10;49.30;;;;;;4978253;28;20205;-67
2020/12/05 06:35:18;;;;;;;27.03;13.37;;;15.10;49.30;;;;;;4979699;28;20241;-60
2020/12/05 06:37:44;;;;;;;23.23;12.20;;;15.10;49.50;;;;;;4965724;28;20198;-60
2020/12/05 06:40:10;;;;;;;20.63;13.40;;;15.00;49.30;;;;;;4976975;28;20194;-60
2020/12/05 06:42:40;;;;;;;20.20;12.43;;;15.10;49.40;;;;;;4975605;28;20592;-61
2020/12/05 06:45:06;;;;;;;23.40;12.87;;;15.10;49.30;;;;;;4979873;28;20650;-64
2020/12/05 06:47:32;;;;;;;23.67;12.63;;;15.10;49.10;;;;;;4980515;28;20214;-69
2020/12/05 06:49:59;;;;;;;22.10;13.17;;;15.10;49.60;;;;;;4979633;28;20200;-65
2020/12/05 06:52:24;;;;;;;27.90;13.67;;;15.10;49.80;;;;;;4978893;28;20521;-61
2020/12/05 06:54:59;;;;;;;22.13;12.87;;;15.10;49.80;;;;;;4979241;28;20214;-60
2020/12/05 06:57:30;;;;;;;18.70;11.87;;;15.10;50.10;;;;;;4979557;28;20246;-61
2020/12/05 07:00:15;;;;;;;19.27;11.67;;;15.10;49.80;;;;;;4979528;28;20247;-60
2020/12/05 07:02:55;;;;;;;18.47;12.57;;;15.10;50.20;;;;;;4979973;28;20185;-60
2020/12/05 07:05:23;;;;;;;21.10;12.17;;;15.20;50.10;;;;;;4973640;28;20206;-60
2020/12/05 07:07:51;;;;;;;19.07;12.47;;;15.20;50.40;;;;;;4971960;28;20205;-60
2020/12/05 07:10:18;;;;;;;22.53;12.43;;;15.20;50.00;;;;;;4978466;28;20200;-60
2020/12/05 07:12:44;;;;;;;20.93;12.10;;;15.20;49.20;;;;;;4980332;28;20197;-61
2020/12/05 07:15:25;;;;;;;21.43;11.73;;;15.20;49.60;;;;;;4979049;28;20222;-60
2020/12/05 07:17:52;;;;;;;19.80;11.90;;;15.20;50.20;;;;;;4971085;28;20216;-67
2020/12/05 07:20:19;;;;;;;17.77;12.30;;;15.20;49.90;;;;;;4978952;28;20222;-63
2020/12/05 07:22:47;;;;;;;22.60;12.27;;;15.20;49.90;;;;;;4971352;28;20224;-63
2020/12/05 07:25:13;;;;;;;21.67;12.73;;;15.20;49.80;;;;;;4979337;28;20262;-60
2020/12/05 07:27:39;;;;;;;17.10;11.50;;;15.20;50.10;;;;;;4972639;28;20240;-60
2020/12/05 07:30:06;;;;;;;19.10;11.67;;;15.20;50.10;;;;;;4977926;28;20198;-64
2020/12/05 07:32:36;;;;;;;17.50;11.83;;;15.30;50.20;;;;;;4979043;28;20723;-59
2020/12/05 07:35:05;;;;;;;17.00;11.70;;;15.30;49.70;;;;;;4978659;28;20211;-59
2020/12/05 07:37:33;;;;;;;16.37;11.67;;;15.30;50.00;;;;;;4979283;28;20218;-59
2020/12/05 07:39:59;;;;;;;16.70;11.03;;;15.30;49.70;;;;;;4978025;28;20197;-62
2020/12/05 07:42:32;;;;;;;17.00;10.80;;;15.20;48.70;;;;;;4979269;28;20190;-59
2020/12/05 07:45:04;;;;;;;19.73;11.03;;;15.30;50.90;;;;;;4978515;28;20190;-59
2020/12/05 07:47:30;;;;;;;17.80;10.57;;;15.30;50.10;;;;;;4977420;28;20747;-59
2020/12/05 07:49:56;;;;;;;18.53;10.87;;;15.40;49.90;;;;;;4978686;28;20205;-59
2020/12/05 07:52:22;;;;;;;15.20;11.37;;;15.50;49.30;;;;;;4978562;28;20198;-65
2020/12/05 07:55:02;;;;;;;19.47;11.43;;;15.40;48.80;;;;;;4976506;28;20542;-60
2020/12/05 07:57:30;;;;;;;20.43;11.97;;;15.40;48.70;;;;;;4970277;28;20301;-59
2020/12/05 08:00:10;;;;;;;18.60;12.03;;;15.40;49.50;;;;;;4970148;28;20300;-60
2020/12/05 08:02:58;;;;;;;16.40;11.40;;;15.40;49.90;;;;;;4971702;28;20207;-59
2020/12/05 08:05:44;;;;;;;18.50;12.03;;;15.40;50.00;;;;;;4978795;28;20195;-59
2020/12/05 08:08:14;;;;;;;18.87;12.47;;;15.40;49.90;;;;;;4978279;28;20226;-59
2020/12/05 08:10:40;;;;;;;19.10;11.67;;;15.50;50.10;;;;;;4968916;28;20269;-59
2020/12/05 08:13:22;;;;;;;19.10;11.67;;;15.50;49.90;;;;;;4978275;28;20681;-60
2020/12/05 08:16:08;;;;;;;14.83;10.47;;;15.50;49.80;;;;;;4977998;28;20653;-59
2020/12/05 08:18:36;;;;;;;21.20;11.27;;;15.50;49.50;;;;;;4978170;28;20225;-59
2020/12/05 08:21:04;;;;;;;15.03;10.57;;;15.50;49.80;;;;;;4977027;28;20193;-60
2020/12/05 08:23:40;;;;;;;18.93;11.17;;;15.60;49.90;;;;;;4977909;28;20194;-60
2020/12/05 08:26:15;;;;;;;15.20;10.77;;;15.60;49.80;;;;;;4978271;28;20750;-60
2020/12/05 08:28:43;;;;;;;17.23;10.73;;;15.60;49.30;;;;;;4976582;28;20731;-60
2020/12/05 08:31:13;;;;;;;14.40;10.03;;;15.60;49.30;;;;;;4970094;28;20237;-59
2020/12/05 08:33:50;;;;;;;13.80;9.90;;;15.70;49.20;;;;;;4969315;28;20255;-59
2020/12/05 08:36:15;;;;;;;19.20;9.97;;;15.70;49.00;;;;;;4971360;28;20231;-61
2020/12/05 08:38:42;;;;;;;18.07;10.40;;;15.60;48.60;;;;;;4977860;28;20209;-59
2020/12/05 08:41:07;;;;;;;13.77;10.33;;;15.70;49.10;;;;;;4977578;28;20274;-64
2020/12/05 08:43:34;;;;;;;15.93;9.40;;;15.70;48.50;;;;;;4972580;28;20308;-59
2020/12/05 08:46:00;;;;;;;19.17;10.90;;;15.60;48.80;;;;;;4968393;28;20196;-59
2020/12/05 08:48:25;;;;;;;16.52;10.00;;;15.70;48.80;;;;;;4978198;28;20211;-59
2020/12/05 08:50:51;;;;;;;13.77;10.37;;;15.80;48.70;;;;;;4975831;28;20300;-59
2020/12/05 08:53:21;;;;;;;15.87;10.43;;;15.80;48.40;;;;;;4978032;28;20188;-59
2020/12/05 08:55:48;;;;;;;14.63;11.10;;;15.80;47.90;;;;;;4977784;28;20727;-58
2020/12/05 08:58:14;;;;;;;41.63;28.00;;;15.80;48.80;;;;;;4969966;28;20966;-59
2020/12/05 09:00:41;;;;;;;71.70;49.87;;;15.80;50.10;;;;;;4977706;28;20189;-59
2020/12/05 09:03:22;;;;;;;75.67;49.73;;;15.90;51.30;;;;;;4968499;28;20204;-59
2020/12/05 09:05:50;;;;;;;60.03;38.17;;;15.90;50.90;;;;;;4978496;28;20192;-59
2020/12/05 09:08:20;;;;;;;52.90;32.27;;;15.90;49.60;;;;;;4981217;28;20239;-59
2020/12/05 09:10:46;;;;;;;48.87;31.30;;;15.80;50.60;;;;;;4980213;28;20195;-59
2020/12/05 09:13:12;;;;;;;38.20;27.37;;;16.00;50.80;;;;;;4973452;28;20202;-58
2020/12/05 09:15:52;;;;;;;43.37;27.60;;;16.10;50.00;;;;;;4981336;28;20193;-59
2020/12/05 09:18:18;;;;;;;37.07;25.23;;;16.10;49.20;;;;;;4973424;28;20209;-59
2020/12/05 09:20:43;;;;;;;34.20;23.83;;;16.10;49.50;;;;;;4981423;28;20992;-59
2020/12/05 09:23:09;;;;;;;32.70;22.73;;;16.10;49.20;;;;;;4981031;28;20191;-59
2020/12/05 09:25:41;;;;;;;29.95;22.55;;;16.20;48.90;;;;;;4981374;28;20848;-58
2020/12/05 09:28:14;;;;;;;28.55;20.55;;;16.20;49.60;;;;;;4978190;28;20289;-59
2020/12/05 09:30:41;;;;;;;28.90;19.50;;;16.30;48.50;;;;;;4976702;28;20196;-59
2020/12/05 09:33:18;;;;;;;27.40;18.97;;;16.30;48.00;;;;;;4980332;28;20211;-59
2020/12/05 09:35:45;;;;;;;26.33;19.05;;;16.30;47.60;;;;;;4981479;28;20201;-59
2020/12/05 09:38:12;;;;;;;25.60;16.90;;;16.20;47.20;;;;;;4972811;28;20669;-59
2020/12/05 09:40:37;;;;;;;24.70;16.88;;;16.30;47.90;;;;;;4980772;28;20193;-59
2020/12/05 09:43:03;;;;;;;23.30;16.48;;;16.20;47.50;;;;;;4981496;28;20194;-59
2020/12/05 09:45:29;;;;;;;24.98;16.00;;;16.20;47.40;;;;;;4980853;28;20187;-59
2020/12/05 09:47:55;;;;;;;24.02;15.07;;;16.20;45.70;;;;;;4981462;28;20259;-59
2020/12/05 09:50:21;;;;;;;21.02;14.88;;;16.20;47.10;;;;;;4972911;28;20293;-63
2020/12/05 09:52:47;;;;;;;23.13;14.77;;;16.30;47.20;;;;;;4980837;28;20920;-59
2020/12/05 09:55:14;;;;;;;20.80;13.75;;;16.20;47.50;;;;;;4977162;28;20312;-67
2020/12/05 09:57:40;;;;;;;21.90;13.00;;;16.30;47.80;;;;;;4976302;28;20839;-58
2020/12/05 10:00:09;;;;;;;21.67;13.03;;;16.40;47.60;;;;;;4980342;28;20234;-59
2020/12/05 10:02:36;;;;;;;20.30;13.00;;;16.40;47.80;;;;;;4980322;28;20299;-59
2020/12/05 10:05:02;;;;;;;17.77;12.17;;;16.50;47.20;;;;;;4979788;28;20190;-59
2020/12/05 10:07:28;;;;;;;18.07;12.00;;;16.50;48.40;;;;;;4980396;28;20313;-59
2020/12/05 10:09:54;;;;;;;16.50;10.80;;;16.50;48.00;;;;;;4978875;28;20200;-59
2020/12/05 10:12:20;;;;;;;15.05;10.98;;;16.60;48.30;;;;;;4979420;28;20194;-59
2020/12/05 10:14:45;;;;;;;17.00;10.83;;;16.60;48.30;;;;;;4981276;28;20226;-59
2020/12/05 10:17:11;;;;;;;15.35;10.15;;;16.60;47.90;;;;;;4979252;28;20212;-59
2020/12/05 10:19:38;;;;;;;15.57;10.43;;;16.60;49.20;;;;;;4980917;28;20200;-59
2020/12/05 10:22:04;;;;;;;14.82;10.50;;;16.60;48.30;;;;;;4980741;28;20195;-59
2020/12/05 10:24:29;;;;;;;14.20;9.88;;;16.60;48.70;;;;;;4981187;28;20199;-59
2020/12/05 10:26:55;;;;;;;14.43;9.68;;;16.60;47.90;;;;;;4981689;28;20240;-59
2020/12/05 10:29:22;;;;;;;14.50;9.83;;;16.60;47.70;;;;;;4980942;28;20271;-59
2020/12/05 10:31:49;;;;;;;12.23;9.10;;;16.70;47.40;;;;;;4972208;28;20248;-67
2020/12/05 10:34:15;;;;;;;15.07;10.05;;;16.70;47.10;;;;;;4980607;28;20782;-64
2020/12/05 10:36:41;;;;;;;13.83;9.77;;;16.70;46.80;;;;;;4980621;28;20188;-65
2020/12/05 10:39:08;;;;;;;19.23;9.87;;;16.80;47.00;;;;;;4977939;28;20212;-60
2020/12/05 10:41:36;;;;;;;19.90;9.47;;;16.80;47.10;;;;;;4971375;28;20279;-60
2020/12/05 10:44:03;;;;;;;18.02;9.05;;;16.90;48.80;;;;;;4980674;28;20652;-66
2020/12/05 10:46:29;;;;;;;18.52;9.05;;;16.90;48.50;;;;;;4979222;28;20654;-60
2020/12/05 10:48:55;;;;;;;16.30;9.40;;;16.90;48.50;;;;;;4979877;28;20219;-58
2020/12/05 10:51:20;;;;;;;16.30;9.27;;;17.00;48.80;;;;;;4979952;28;20578;-61
2020/12/05 10:53:46;;;;;;;23.48;8.88;;;17.00;48.30;;;;;;4979324;28;20213;-63
2020/12/05 10:56:12;;;;;;;21.45;9.43;;;16.90;48.70;;;;;;4980291;28;20190;-60
2020/12/05 10:58:38;;;;;;;18.20;8.93;;;17.00;48.10;;;;;;4979803;28;20274;-60
2020/12/05 11:01:03;;;;;;;18.13;10.07;;;17.00;47.80;;;;;;4979667;28;20197;-59
2020/12/05 11:03:29;;;;;;;18.00;8.20;;;17.00;47.80;;;;;;4980309;28;20232;-60
2020/12/05 11:05:55;;;;;;;12.82;8.13;;;17.00;47.50;;;;;;4979083;28;20289;-60
2020/12/05 11:08:21;;;;;;;17.40;9.00;;;17.00;47.20;;;;;;4979595;28;20218;-60
2020/12/05 11:10:46;;;;;;;16.58;8.13;;;17.10;47.30;;;;;;4979257;28;20204;-59
2020/12/05 11:13:12;;;;;;;14.25;8.90;;;17.10;47.00;;;;;;4980011;28;20307;-65
2020/12/05 11:15:39;;;;;;;18.77;10.03;;;17.00;45.80;;;;;;4979302;28;20190;-65
2020/12/05 11:18:05;;;;;;;16.95;9.77;;;16.80;44.50;;;;;;4979195;28;20276;-65
2020/12/05 11:20:31;;;;;;;18.20;9.45;;;16.60;43.60;;;;;;4979281;28;20201;-65
2020/12/05 11:22:56;;;;;;;12.93;9.03;;;16.50;43.50;;;;;;4978742;28;21022;-65
2020/12/05 11:25:22;;;;;;;12.37;8.60;;;16.40;44.40;;;;;;4979805;28;20304;-65
2020/12/05 11:27:48;;;;;;;10.57;8.32;;;16.50;47.00;;;;;;4979027;28;20248;-60
2020/12/05 11:30:13;;;;;;;12.65;8.63;;;16.70;48.00;;;;;;4977981;28;20196;-60
2020/12/05 11:32:39;;;;;;;13.25;8.45;;;16.90;48.20;;;;;;4972035;28;20209;-60
2020/12/05 11:35:05;;;;;;;18.23;8.75;;;17.10;48.10;;;;;;4977752;28;20257;-60
2020/12/05 11:37:31;;;;;;;13.32;8.15;;;17.10;47.90;;;;;;4978838;28;20282;-60
2020/12/05 11:39:57;;;;;;;11.95;8.13;;;17.20;47.70;;;;;;4977359;28;21028;-60
2020/12/05 11:42:23;;;;;;;14.63;8.00;;;17.20;47.50;;;;;;4979360;28;20666;-61
2020/12/05 11:44:48;;;;;;;15.25;7.97;;;17.30;47.50;;;;;;4971055;28;20189;-60
2020/12/05 11:47:14;;;;;;;15.85;7.68;;;17.30;48.00;;;;;;4978268;28;21265;-62
2020/12/05 11:49:40;;;;;;;17.00;7.72;;;17.30;47.80;;;;;;4977843;28;20189;-67
2020/12/05 11:52:05;;;;;;;15.98;7.82;;;17.30;47.80;;;;;;4978268;28;20196;-60
2020/12/05 11:54:31;;;;;;;15.13;7.80;;;17.20;48.20;;;;;;4978535;28;20209;-59
2020/12/05 11:56:57;;;;;;;13.23;7.97;;;17.20;47.80;;;;;;4978519;28;20192;-59
2020/12/05 11:59:22;;;;;;;18.95;8.02;;;17.20;48.20;;;;;;4978176;28;20315;-59
2020/12/05 12:01:48;;;;;;;13.32;8.35;;;17.20;48.00;;;;;;4978704;28;20188;-59
2020/12/05 12:04:13;;;;;;;13.52;8.27;;;17.20;47.70;;;;;;4974053;28;20675;-59
2020/12/05 12:06:39;;;;;;;13.35;8.43;;;17.30;47.30;;;;;;4972749;28;20699;-59
2020/12/05 12:09:07;;;;;;;14.90;8.82;;;17.30;47.00;;;;;;4976399;28;20990;-59
2020/12/05 12:11:33;;;;;;;13.57;10.48;;;17.20;46.60;;;;;;4978361;28;21105;-60
2020/12/05 12:13:59;;;;;;;24.80;10.50;;;17.30;46.30;;;;;;4968797;28;20377;-59
2020/12/05 12:16:24;;;;;;;18.67;11.05;;;17.20;46.20;;;;;;4978881;28;20304;-59
2020/12/05 12:18:53;;;;;;;21.48;9.80;;;17.20;46.10;;;;;;4977348;28;20217;-59
2020/12/05 12:21:26;;;;;;;20.52;10.95;;;17.20;45.90;;;;;;4977938;28;20190;-59
2020/12/05 12:23:53;;;;;;;18.33;11.30;;;17.20;45.60;;;;;;4978470;28;20211;-59
2020/12/05 12:26:19;;;;;;;15.88;11.38;;;17.20;45.40;;;;;;4978546;28;21056;-60
2020/12/05 12:28:45;;;;;;;19.98;10.60;;;17.10;45.30;;;;;;4977516;28;20324;-61
2020/12/05 12:31:11;;;;;;;17.67;11.15;;;17.10;45.40;;;;;;4977205;28;20190;-60
2020/12/05 12:33:38;;;;;;;23.95;11.25;;;17.20;45.40;;;;;;4978166;28;21013;-60
2020/12/05 12:36:04;;;;;;;22.05;10.65;;;17.20;45.30;;;;;;4978136;28;20217;-60